DW4005 Mahon ES current weather conditions

sailwx.info

Wind from 169

Air temperature 13.9° C
Dewpoint 11.6° C

Last reported at 2015-Mar-02 22:35 UTC.
Time now 2015-Mar-02 23:15 UTC

Location: N 39°56' E 004°08'.
View on Google Maps.

See reports from other nearby stations

  
Tides and Currents Weather Stations Pressure Air Temp Water Temp Dewpoint Dewpoint Depression Visibility Wind Speed Wind Dir Waves Ship Positions
date/time (UTC)wind fromknots sea level pressurealtimeterstation pressurevisibilityair tempwater tempwave heightnotes
2015-Mar-02 22:35 169 13.9
2015-Mar-02 22:20 169 13.9
2015-Mar-02 22:05 169 13.9
2015-Mar-02 21:50 169 13.9
2015-Mar-02 21:35 169 13.9
2015-Mar-02 21:20 169 14.4
2015-Mar-02 21:05 169 14.4
2015-Mar-02 20:50 169 14.4
2015-Mar-02 20:35 169 14.4
2015-Mar-02 20:20 169 15.0
2015-Mar-02 20:05 169 15.0
2015-Mar-02 19:50 169 15.6
2015-Mar-02 19:35 169 16.1
2015-Mar-02 19:20 169 16.7
2015-Mar-02 19:05 182 0 gusting 5 17.2
2015-Mar-02 18:50 180 2 gusting 5 16.7
2015-Mar-02 18:35 181 16.1
2015-Mar-02 18:20 154 0 gusting 3 16.1
2015-Mar-02 18:05 147 16.1
2015-Mar-02 17:50 147 16.7
2015-Mar-02 17:35 147 17.2
2015-Mar-02 17:20 147 17.8
2015-Mar-02 17:05 147 18.3
2015-Mar-02 16:50 147 18.9
2015-Mar-02 16:35 163 20.0
2015-Mar-02 16:20 182 1 gusting 5 20.0
2015-Mar-02 16:05 157 1 gusting 4 20.0
2015-Mar-02 15:50 163 0 gusting 5 20.6
2015-Mar-02 15:36 153 21.7
2015-Mar-02 15:20 245 0 gusting 3 22.2
2015-Mar-02 15:05 148 1 gusting 7 21.1
2015-Mar-02 14:50 173 1 gusting 5 22.8
2015-Mar-02 14:35 321 0 gusting 5 22.2
2015-Mar-02 14:20 252 3 gusting 4 22.2
2015-Mar-02 14:05 271 1 gusting 5 21.7
2015-Mar-02 13:50 277 2 gusting 6 22.2
2015-Mar-02 13:35 308 2 gusting 7 22.8
2015-Mar-02 13:20 331 0 gusting 7 22.2
2015-Mar-02 13:05 294 2 gusting 6 22.2
2015-Mar-02 12:50 318 3 gusting 9 22.8
2015-Mar-02 12:35 288 3 gusting 8 22.8
2015-Mar-02 12:20 325 3 gusting 7 22.2
2015-Mar-02 12:05 323 6 gusting 10 22.2
2015-Mar-02 11:50 326 3 gusting 12 22.2
2015-Mar-02 11:35 302 2 gusting 12 22.2
2015-Mar-02 11:20 330 4 gusting 13 21.7
2015-Mar-02 11:05 328 2 gusting 7 21.7
2015-Mar-02 10:50 271 3 gusting 8 21.7
2015-Mar-02 10:35 254 2 gusting 8 21.1
2015-Mar-02 10:20 273 2 gusting 7 21.1
2015-Mar-02 10:04 278 3 gusting 7 20.0
2015-Mar-02 09:49 286 2 gusting 5 20.0
2015-Mar-02 09:34 265 2 gusting 6 20.0
2015-Mar-02 09:19 256 0 gusting 6 19.4
2015-Mar-02 09:04 288 2 gusting 6 19.4
2015-Mar-02 08:49 280 0 gusting 4 18.9
2015-Mar-02 08:34 267 1 gusting 5 18.3
2015-Mar-02 08:20 159 1 gusting 5 17.8
2015-Mar-02 08:04 246 0 gusting 3 17.8
2015-Mar-02 07:49 271 1 gusting 5 17.2
2015-Mar-02 07:34 269 17.2
2015-Mar-02 07:19 183 1 gusting 6 16.7
2015-Mar-02 06:49 254 15.0
2015-Mar-02 06:34 271 15.0
2015-Mar-02 06:18 271 1 gusting 6 15.0
2015-Mar-02 06:04 271 0 gusting 6 14.4
2015-Mar-02 05:49 280 0 gusting 10 13.9
2015-Mar-02 05:34 237 13.9
2015-Mar-02 05:19 277 2 gusting 7 13.3
2015-Mar-02 05:04 132 13.3
2015-Mar-02 04:49 125 0 gusting 6 13.9
2015-Mar-02 04:34 144 1 gusting 6 13.3
2015-Mar-02 04:19 130 13.3
2015-Mar-02 03:49 148 5 gusting 13 13.3
2015-Mar-02 03:34 177 6 gusting 13 13.3
2015-Mar-02 03:18 145 4 gusting 12 13.3
2015-Mar-02 03:03 134 3 gusting 8 13.3
2015-Mar-02 02:48 148 4 gusting 10 13.3
2015-Mar-02 02:33 165 6 gusting 15 13.9
2015-Mar-02 02:18 093 3 gusting 7 13.3
2015-Mar-02 02:03 156 1 gusting 10 13.3
2015-Mar-02 01:48 163 5 gusting 13 13.3
2015-Mar-02 01:33 163 2 gusting 8 13.3
2015-Mar-02 01:18 143 5 gusting 15 12.8
2015-Mar-02 01:04 099 12.8
2015-Mar-02 00:48 360 12.8
2015-Mar-02 00:33 046 0 gusting 6 12.8
2015-Mar-02 00:18 098 12.8
2015-Mar-02 00:03 128 0 gusting 11 12.8
2015-Mar-01 23:48 128 12.8
2015-Mar-01 23:33 167 3 gusting 10 12.8
2015-Mar-01 23:18 146 12.8
2015-Mar-01 23:03 148 2 gusting 8 12.8
2015-Mar-01 22:48 169 3 gusting 7 12.8
2015-Mar-01 22:33 161 3 gusting 12 12.8
2015-Mar-01 22:18 133 12.8
2015-Mar-01 22:03 126 2 gusting 7 12.8
2015-Mar-01 21:48 134 0 gusting 5 12.8
2015-Mar-01 21:33 161 4 gusting 12 13.3
2015-Mar-01 21:17 152 6 gusting 17 13.3
2015-Mar-01 21:02 146 0 gusting 8 13.3
2015-Mar-01 20:47 160 6 gusting 13 13.3
2015-Mar-01 20:32 163 7 gusting 13 13.3
2015-Mar-01 20:17 169 6 gusting 13 13.3
2015-Mar-01 20:02 172 6 gusting 13 13.3
2015-Mar-01 19:47 167 1 gusting 10 13.3
2015-Mar-01 19:32 182 6 gusting 12 13.3
2015-Mar-01 19:17 135 0 gusting 5 13.3
2015-Mar-01 19:02 140 13.9
2015-Mar-01 18:49 142 1 gusting 6 13.9
2015-Mar-01 18:32 159 2 gusting 7 13.9
2015-Mar-01 18:17 140 1 gusting 6 14.4
2015-Mar-01 18:02 307 14.4
2015-Mar-01 17:47 294 0 gusting 4 14.4
2015-Mar-01 17:32 290 0 gusting 5 15.0
2015-Mar-01 17:17 023 1 gusting 6 15.0
2015-Mar-01 17:02 127 1 gusting 6 15.0
2015-Mar-01 16:47 159 15.0
2015-Mar-01 16:32 157 2 gusting 7 15.6
2015-Mar-01 16:02 146 1 gusting 7 16.1
2015-Mar-01 15:47 107 1 gusting 9 16.1
2015-Mar-01 15:32 088 3 gusting 7 16.7
2015-Mar-01 15:17 103 1 gusting 6 17.2
2015-Mar-01 15:02 145 3 gusting 8 16.7
2015-Mar-01 14:47 092 0 gusting 6 17.2
2015-Mar-01 14:32 104 0 gusting 6 16.7
2015-Mar-01 14:17 119 2 gusting 7 16.7
2015-Mar-01 14:02 130 0 gusting 7 16.7
2015-Mar-01 13:47 080 0 gusting 6 16.7
2015-Mar-01 13:32 239 2 gusting 6 16.1
2015-Mar-01 13:17 090 1 gusting 6 15.6
2015-Mar-01 13:02 096 15.6
2015-Mar-01 12:47 143 1 gusting 7 15.6
2015-Mar-01 12:32 153 1 gusting 6 16.1
2015-Mar-01 12:17 132 1 gusting 9 15.6
2015-Mar-01 12:02 132 2 gusting 9 15.6
2015-Mar-01 11:47 156 1 gusting 8 15.0
2015-Mar-01 11:34 142 2 gusting 8 15.0
2015-Mar-01 11:17 158 1 gusting 6 15.0
2015-Mar-01 11:02 163 3 gusting 7 15.0
2015-Mar-01 10:47 211 0 gusting 6 16.1
2015-Mar-01 10:32 153 1 gusting 8 15.0
2015-Mar-01 10:17 153 0 gusting 8 15.0
2015-Mar-01 09:47 150 1 gusting 7 14.4
2015-Mar-01 09:32 186 3 gusting 6 13.3
2015-Mar-01 09:17 169 12.8
2015-Mar-01 09:02 166 0 gusting 6 12.2
2015-Mar-01 08:47 171 1 gusting 6 12.2
2015-Mar-01 08:32 152 11.1
2015-Mar-01 08:17 152 11.1
2015-Mar-01 08:01 152 11.1
2015-Mar-01 07:46 151 11.1
2015-Mar-01 07:31 154 10.6
2015-Mar-01 07:16 165 0 gusting 5 10.6
2015-Mar-01 07:02 175 1 gusting 5 10.0
2015-Mar-01 06:47 189 10.0
2015-Mar-01 06:32 188 10.0
2015-Mar-01 06:17 194 10.0
2015-Mar-01 06:02 194 10.0
2015-Mar-01 05:47 194 10.0
2015-Mar-01 05:32 198 10.0
2015-Mar-01 05:20 202 10.0
2015-Mar-01 05:02 210 10.0
2015-Mar-01 04:47 253 0 gusting 5 10.6
2015-Mar-01 04:32 242 10.6
2015-Mar-01 04:17 252 10.6
2015-Mar-01 04:02 252 10.6
2015-Mar-01 03:47 253 10.6
2015-Mar-01 03:32 255 0 gusting 4 10.6
2015-Mar-01 03:17 256 10.0
2015-Mar-01 03:02 255 0 gusting 4 10.0
2015-Mar-01 02:47 252 0 gusting 4 10.0
2015-Mar-01 02:32 253 0 gusting 4 9.4
2015-Mar-01 02:17 267 1 gusting 4 9.4
2015-Mar-01 02:02 266 0 gusting 3 9.4
2015-Mar-01 01:47 265 0 gusting 4 9.4
2015-Mar-01 01:32 272 0 gusting 4 9.4
2015-Mar-01 01:17 274 1 gusting 4 9.4
2015-Mar-01 01:02 274 0 gusting 3 9.4
2015-Mar-01 00:47 272 1 gusting 4 9.4
2015-Mar-01 00:32 270 9.4
2015-Mar-01 00:17 277 1 gusting 4 9.4
2015-Mar-01 00:02 268 0 gusting 4 9.4
2015-Feb-28 23:47 271 0 gusting 4 9.4
2015-Feb-28 23:31 275 1 gusting 4 8.9
2015-Feb-28 23:16 275 2 gusting 4 8.9
2015-Feb-28 23:01 277 0 gusting 4 9.4